Time;durP1;ratioP1;P1;durP2;ratioP2;P2;SDS_P1;SDS_P2;PMS_P1;PMS_P2;Temp;Humidity;BMP_temperature;BMP_pressure;BME280_temperature;BME280_humidity;BME280_pressure;Samples;Min_cycle;Max_cycle;Signal;HPM_P1;HPM_P2
2022/09/06 00:00:08;;;;;;;5.30;2.78;;;22.60;99.90;;;;;;5033765;28;20030;-68
2022/09/06 00:02:35;;;;;;;5.57;3.25;;;22.40;99.90;;;;;;5045031;28;20021;-68
2022/09/06 00:05:01;;;;;;;4.22;2.75;;;22.40;99.90;;;;;;5031487;28;20032;-69
2022/09/06 00:07:27;;;;;;;4.75;2.97;;;22.20;99.90;;;;;;5034399;28;20014;-69
2022/09/06 00:09:53;;;;;;;4.72;2.88;;;22.20;99.90;;;;;;5027268;28;20013;-67
2022/09/06 00:12:18;;;;;;;4.13;2.92;;;22.40;99.90;;;;;;5032358;28;20477;-68
2022/09/06 00:14:44;;;;;;;3.60;3.17;;;22.50;99.90;;;;;;5031649;28;20577;-70
2022/09/06 00:17:10;;;;;;;5.30;3.10;;;22.50;99.90;;;;;;5029979;28;20025;-68
2022/09/06 00:19:36;;;;;;;3.47;3.17;;;22.50;99.90;;;;;;5032304;28;20465;-68
2022/09/06 00:22:01;;;;;;;5.28;3.55;;;22.50;99.90;;;;;;5032216;28;20512;-68
2022/09/06 00:24:27;;;;;;;5.57;3.22;;;22.50;99.90;;;;;;5033060;28;20029;-68
2022/09/06 00:26:52;;;;;;;5.03;3.40;;;22.30;99.90;;;;;;5031228;28;20072;-68
2022/09/06 00:29:18;;;;;;;4.50;3.28;;;22.00;99.90;;;;;;5033729;28;20026;-68
2022/09/06 00:31:43;;;;;;;3.70;3.38;;;22.00;99.90;;;;;;5033492;28;20105;-68
2022/09/06 00:34:09;;;;;;;4.78;3.30;;;22.10;99.90;;;;;;5035895;28;20026;-67
2022/09/06 00:36:35;;;;;;;4.45;3.08;;;22.10;99.90;;;;;;5027403;28;20036;-68
2022/09/06 00:39:00;;;;;;;5.25;3.20;;;22.00;99.90;;;;;;5031431;28;20024;-68
2022/09/06 00:41:26;;;;;;;5.35;3.50;;;22.00;99.90;;;;;;5030307;28;20488;-68
2022/09/06 00:43:53;;;;;;;3.55;3.25;;;21.60;99.90;;;;;;5033738;28;20096;-67
2022/09/06 00:46:22;;;;;;;3.65;3.05;;;21.90;99.90;;;;;;5040131;28;20025;-67
2022/09/06 00:48:58;;;;;;;6.03;3.78;;;21.80;99.90;;;;;;5033156;28;20029;-68
2022/09/06 00:51:27;;;;;;;3.85;3.55;;;21.70;99.90;;;;;;5032183;28;20517;-68
2022/09/06 00:53:52;;;;;;;4.60;3.67;;;21.50;99.90;;;;;;5032869;28;20468;-67
2022/09/06 00:56:18;;;;;;;5.22;4.10;;;21.20;99.90;;;;;;5034160;28;20092;-68
2022/09/06 00:58:45;;;;;;;4.78;4.35;;;21.00;99.90;;;;;;5032849;28;20465;-68
2022/09/06 01:01:11;;;;;;;5.93;4.75;;;21.10;99.90;;;;;;5041202;28;20079;-68
2022/09/06 01:03:37;;;;;;;6.07;4.25;;;21.30;99.90;;;;;;5037030;28;20478;-67
2022/09/06 01:06:11;;;;;;;5.43;4.97;;;21.30;99.90;;;;;;5030296;28;20029;-67
2022/09/06 01:09:09;;;;;;;6.18;4.43;;;21.30;99.90;;;;;;5017040;28;20023;-68
2022/09/06 01:11:42;;;;;;;4.57;4.18;;;21.50;99.90;;;;;;5027321;28;20068;-68
2022/09/06 01:14:26;;;;;;;6.35;4.03;;;21.60;99.90;;;;;;5046583;28;20051;-68
2022/09/06 01:17:21;;;;;;;6.25;4.55;;;21.50;99.90;;;;;;5039415;28;20029;-69
2022/09/06 01:20:17;;;;;;;5.00;4.53;;;21.50;99.90;;;;;;5034151;28;20140;-69
2022/09/06 01:23:04;;;;;;;7.40;4.80;;;21.60;99.90;;;;;;5027870;28;20022;-68
2022/09/06 01:25:36;;;;;;;7.70;4.22;;;21.60;99.90;;;;;;5030156;28;20561;-68
2022/09/06 01:28:23;;;;;;;5.45;4.57;;;21.60;99.90;;;;;;5030201;28;20017;-68
2022/09/06 01:31:12;;;;;;;5.45;4.95;;;21.60;99.90;;;;;;5034169;28;20030;-68
2022/09/06 01:34:04;;;;;;;6.70;5.03;;;21.60;99.90;;;;;;5028288;28;20037;-68
2022/09/06 01:37:11;;;;;;;5.82;5.20;;;21.40;99.90;;;;;;5033731;28;20038;-68
2022/09/06 01:39:38;;;;;;;5.72;4.63;;;21.20;99.90;;;;;;5035513;28;20034;-67
2022/09/06 01:42:19;;;;;;;5.45;4.97;;;21.40;99.90;;;;;;5032562;28;20040;-68
2022/09/06 01:44:55;;;;;;;9.65;5.85;;;21.50;99.90;;;;;;5032804;28;20018;-68
2022/09/06 01:47:45;;;;;;;5.05;4.65;;;21.30;99.90;;;;;;5034978;28;20437;-68
2022/09/06 01:50:30;;;;;;;5.75;5.10;;;21.20;99.90;;;;;;5033553;28;20100;-69
2022/09/06 01:53:30;;;;;;;5.78;5.18;;;21.30;99.90;;;;;;5034204;28;20048;-68
2022/09/06 01:56:08;;;;;;;6.65;6.07;;;21.30;99.90;;;;;;5033618;28;20049;-68
2022/09/06 01:59:00;;;;;;;5.80;5.32;;;21.30;99.90;;;;;;5033929;28;20080;-69
2022/09/06 02:01:51;;;;;;;7.53;6.85;;;21.30;99.90;;;;;;5031706;28;20465;-68
2022/09/06 02:04:44;;;;;;;7.20;6.60;;;21.40;99.90;;;;;;5034514;28;20030;-68
2022/09/06 02:07:40;;;;;;;9.63;7.07;;;21.40;99.90;;;;;;5033638;28;20021;-69
2022/09/06 02:10:27;;;;;;;9.07;6.70;;;21.50;99.90;;;;;;5016271;28;20041;-69
2022/09/06 02:12:58;;;;;;;6.50;5.90;;;21.60;99.90;;;;;;5031299;28;20025;-69
2022/09/06 02:15:35;;;;;;;6.00;5.40;;;21.50;99.90;;;;;;5031910;28;20033;-69
2022/09/06 02:18:15;;;;;;;6.88;6.15;;;21.50;99.90;;;;;;5033137;28;20116;-69
2022/09/06 02:20:48;;;;;;;8.38;6.97;;;21.40;99.90;;;;;;5034648;28;20021;-69
2022/09/06 02:23:15;;;;;;;7.18;6.47;;;21.50;99.90;;;;;;5034731;28;20088;-69
2022/09/06 02:25:48;;;;;;;7.53;6.32;;;21.50;99.90;;;;;;5034813;28;20022;-69
2022/09/06 02:28:13;;;;;;;6.07;5.57;;;21.40;99.90;;;;;;5033013;28;20053;-69
2022/09/06 02:30:46;;;;;;;8.35;6.80;;;21.30;99.90;;;;;;5034346;28;20485;-69
2022/09/06 02:33:17;;;;;;;7.97;6.55;;;21.40;99.90;;;;;;5034653;28;20021;-69
2022/09/06 02:35:46;;;;;;;7.68;6.32;;;21.40;99.90;;;;;;5032063;28;20033;-69
2022/09/06 02:38:13;;;;;;;7.35;6.65;;;21.20;99.90;;;;;;5034509;28;20010;-69
2022/09/06 02:40:39;;;;;;;8.52;6.63;;;21.00;99.90;;;;;;5031417;28;20056;-69
2022/09/06 02:43:05;;;;;;;7.57;6.53;;;21.00;99.90;;;;;;5031703;28;20466;-69
2022/09/06 02:45:30;;;;;;;7.57;6.78;;;20.90;99.90;;;;;;5033076;28;20060;-69
2022/09/06 02:47:56;;;;;;;7.93;6.60;;;21.00;99.90;;;;;;5033540;28;20037;-69
2022/09/06 02:50:21;;;;;;;8.52;7.40;;;20.90;99.90;;;;;;5026120;28;20025;-69
2022/09/06 02:53:04;;;;;;;8.65;6.47;;;20.80;99.90;;;;;;5014360;28;20482;-69
2022/09/06 02:55:29;;;;;;;6.28;5.68;;;20.80;99.90;;;;;;5013866;28;20061;-69
2022/09/06 02:57:55;;;;;;;8.73;7.80;;;20.80;99.90;;;;;;5032016;28;20061;-70
2022/09/06 03:00:20;;;;;;;10.80;8.35;;;20.40;99.90;;;;;;5033919;28;20077;-68
2022/09/06 03:02:46;;;;;;;8.55;7.75;;;20.40;99.90;;;;;;5033778;28;20022;-69
2022/09/06 03:05:12;;;;;;;8.75;7.28;;;20.60;99.90;;;;;;5033589;28;20029;-68
2022/09/06 03:07:38;;;;;;;8.15;7.35;;;20.60;99.90;;;;;;5034299;28;20465;-68
2022/09/06 03:10:04;;;;;;;8.07;7.25;;;20.40;99.90;;;;;;5033067;28;20025;-69
2022/09/06 03:12:29;;;;;;;8.80;7.90;;;20.60;99.90;;;;;;5032891;28;20025;-68
2022/09/06 03:14:55;;;;;;;7.95;7.25;;;20.60;99.90;;;;;;5033398;28;20478;-68
2022/09/06 03:17:21;;;;;;;7.93;6.97;;;20.60;99.90;;;;;;5032608;28;20026;-69
2022/09/06 03:19:47;;;;;;;8.05;7.30;;;20.40;99.90;;;;;;5033413;28;20040;-70
2022/09/06 03:22:12;;;;;;;8.57;7.65;;;20.40;99.90;;;;;;5033388;28;20037;-70
2022/09/06 03:24:38;;;;;;;8.98;7.85;;;20.40;99.90;;;;;;5031210;28;20478;-69
2022/09/06 03:27:04;;;;;;;11.43;7.60;;;20.40;99.90;;;;;;5033585;28;20031;-70
2022/09/06 03:29:29;;;;;;;12.35;8.52;;;20.20;99.90;;;;;;5032092;28;20409;-70
2022/09/06 03:31:55;;;;;;;14.05;7.85;;;20.10;99.90;;;;;;5033494;28;20029;-70
2022/09/06 03:34:20;;;;;;;8.93;7.90;;;20.20;99.90;;;;;;5033679;28;20108;-69
2022/09/06 03:36:46;;;;;;;9.52;8.25;;;20.20;99.90;;;;;;5033796;28;20034;-69
2022/09/06 03:39:12;;;;;;;8.48;7.68;;;20.20;99.90;;;;;;5033349;28;20048;-70
2022/09/06 03:41:37;;;;;;;9.10;8.23;;;20.20;99.90;;;;;;5033377;28;20060;-70
2022/09/06 03:44:03;;;;;;;13.85;9.10;;;20.20;99.90;;;;;;5032725;28;20374;-69
2022/09/06 03:46:29;;;;;;;13.07;8.23;;;20.20;99.90;;;;;;5032933;28;20445;-70
2022/09/06 03:48:56;;;;;;;9.45;8.00;;;20.30;99.90;;;;;;5033977;28;20078;-72
2022/09/06 03:51:22;;;;;;;9.52;8.63;;;20.30;99.90;;;;;;5031974;28;20068;-69
2022/09/06 03:53:47;;;;;;;9.18;7.47;;;20.30;99.90;;;;;;5031780;28;20021;-70
2022/09/06 03:56:13;;;;;;;11.75;7.65;;;20.40;99.90;;;;;;5032165;28;20497;-70
2022/09/06 03:58:39;;;;;;;8.73;7.82;;;20.30;99.90;;;;;;5032973;28;20112;-70
2022/09/06 04:01:07;;;;;;;8.70;7.90;;;20.30;99.90;;;;;;5032867;28;20569;-70
2022/09/06 04:03:34;;;;;;;11.18;7.78;;;20.20;99.90;;;;;;5033241;28;20112;-69
2022/09/06 04:06:00;;;;;;;9.32;8.40;;;20.10;99.90;;;;;;5032894;28;20026;-69
2022/09/06 04:08:26;;;;;;;9.50;8.50;;;20.10;99.90;;;;;;5032131;28;20367;-69
2022/09/06 04:10:56;;;;;;;8.82;7.32;;;20.20;99.90;;;;;;5032715;28;20076;-70
2022/09/06 04:13:22;;;;;;;10.02;8.35;;;20.20;99.90;;;;;;5032910;28;20516;-69
2022/09/06 04:15:49;;;;;;;12.40;8.68;;;20.30;99.90;;;;;;5031572;28;20084;-69
2022/09/06 04:18:15;;;;;;;9.35;8.40;;;20.20;99.90;;;;;;5032878;28;20108;-69
2022/09/06 04:20:40;;;;;;;9.07;8.20;;;20.20;99.90;;;;;;5031883;28;20105;-69
2022/09/06 04:23:07;;;;;;;8.20;7.43;;;20.20;99.90;;;;;;5032720;28;20387;-69
2022/09/06 04:25:32;;;;;;;10.10;8.07;;;20.20;99.90;;;;;;5032026;28;20026;-69
2022/09/06 04:27:58;;;;;;;9.25;8.27;;;20.30;99.90;;;;;;5032205;28;20168;-72
2022/09/06 04:30:24;;;;;;;9.27;8.05;;;20.20;99.90;;;;;;5032876;28;20060;-69
2022/09/06 04:32:49;;;;;;;11.20;9.27;;;20.30;99.90;;;;;;5032514;28;20030;-69
2022/09/06 04:35:15;;;;;;;9.52;8.63;;;20.30;99.90;;;;;;5031376;28;20439;-68
2022/09/06 04:37:41;;;;;;;9.80;8.85;;;20.30;99.90;;;;;;5032444;28;20022;-70
2022/09/06 04:40:06;;;;;;;11.75;9.07;;;20.30;99.90;;;;;;5032380;28;20033;-70
2022/09/06 04:42:32;;;;;;;9.85;9.02;;;20.30;99.90;;;;;;5032296;28;20082;-70
2022/09/06 04:44:58;;;;;;;10.25;9.23;;;20.30;99.90;;;;;;5033015;28;20038;-71
2022/09/06 04:47:24;;;;;;;10.43;9.43;;;20.30;99.90;;;;;;5032695;28;20474;-69
2022/09/06 04:49:50;;;;;;;11.65;10.05;;;20.20;99.90;;;;;;5032613;28;20034;-68
2022/09/06 04:52:16;;;;;;;10.85;9.82;;;20.20;99.90;;;;;;5032019;28;20066;-69
2022/09/06 04:54:41;;;;;;;12.80;9.35;;;20.10;99.90;;;;;;5031071;28;20122;-69
2022/09/06 04:57:07;;;;;;;9.90;9.00;;;20.10;99.90;;;;;;5032052;28;20021;-69
2022/09/06 04:59:33;;;;;;;10.23;9.20;;;20.00;99.90;;;;;;5031657;28;20472;-70
2022/09/06 05:01:58;;;;;;;10.90;9.30;;;20.00;99.90;;;;;;5031446;28;20584;-69
2022/09/06 05:04:24;;;;;;;10.18;7.97;;;20.00;99.90;;;;;;5035813;28;20024;-70
2022/09/06 05:06:59;;;;;;;11.13;8.10;;;19.70;99.90;;;;;;5036283;28;20033;-69
2022/09/06 05:09:25;;;;;;;8.70;7.88;;;19.70;99.90;;;;;;5036318;28;20474;-69
2022/09/06 05:11:51;;;;;;;9.55;8.15;;;19.60;99.90;;;;;;5035438;28;20033;-69
2022/09/06 05:14:16;;;;;;;10.27;8.20;;;19.50;99.90;;;;;;5035478;28;20433;-69
2022/09/06 05:16:44;;;;;;;10.85;8.15;;;19.50;99.90;;;;;;5036423;28;20450;-68
2022/09/06 05:19:09;;;;;;;10.80;9.48;;;19.60;99.90;;;;;;5036464;28;20037;-69
2022/09/06 05:21:35;;;;;;;9.27;8.30;;;19.50;99.90;;;;;;5035241;28;20075;-68
2022/09/06 05:24:00;;;;;;;9.88;8.13;;;19.30;99.90;;;;;;5036370;28;20026;-68
2022/09/06 05:26:26;;;;;;;10.32;8.68;;;19.40;99.90;;;;;;5035924;28;20048;-68
2022/09/06 05:28:52;;;;;;;10.70;8.82;;;19.40;99.90;;;;;;5035793;28;20068;-69
2022/09/06 05:31:33;;;;;;;12.07;9.18;;;19.50;99.90;;;;;;5034858;28;21715;-68
2022/09/06 05:33:59;;;;;;;9.38;8.48;;;19.50;99.90;;;;;;5022406;28;20277;-68
2022/09/06 05:36:26;;;;;;;9.85;8.60;;;19.50;99.90;;;;;;5035787;28;20109;-68
2022/09/06 05:38:53;;;;;;;14.27;8.60;;;19.60;99.90;;;;;;5035859;28;20022;-71
2022/09/06 05:41:19;;;;;;;11.38;8.95;;;19.70;99.90;;;;;;5035645;28;20021;-68
2022/09/06 05:43:45;;;;;;;9.93;8.95;;;19.70;99.90;;;;;;5035987;28;20026;-69
2022/09/06 05:46:11;;;;;;;12.45;8.82;;;19.70;99.90;;;;;;5035435;28;20461;-69
2022/09/06 05:48:37;;;;;;;9.80;8.75;;;19.70;99.90;;;;;;5035383;28;20080;-69
2022/09/06 05:51:12;;;;;;;10.48;9.43;;;19.70;99.90;;;;;;5035070;28;20021;-70
2022/09/06 05:53:40;;;;;;;13.32;10.15;;;19.70;99.90;;;;;;5035431;28;20025;-70
2022/09/06 05:56:07;;;;;;;11.70;10.38;;;19.70;99.90;;;;;;5035707;28;20037;-69
2022/09/06 05:58:33;;;;;;;12.65;9.65;;;19.60;99.90;;;;;;5035716;28;20370;-69
2022/09/06 06:01:16;;;;;;;11.73;9.55;;;19.60;99.90;;;;;;5035130;28;20037;-69
2022/09/06 06:03:42;;;;;;;14.00;9.80;;;19.60;99.90;;;;;;5035300;28;20025;-69
2022/09/06 06:06:08;;;;;;;11.48;10.07;;;19.60;99.90;;;;;;5035047;28;20430;-69
2022/09/06 06:08:34;;;;;;;13.57;10.07;;;19.50;99.90;;;;;;5034113;28;20092;-70
2022/09/06 06:11:01;;;;;;;13.65;9.38;;;19.50;99.90;;;;;;5035710;28;20017;-68
2022/09/06 06:13:28;;;;;;;10.43;8.32;;;19.50;99.90;;;;;;5035216;28;20040;-69
2022/09/06 06:15:55;;;;;;;11.68;9.63;;;19.50;99.90;;;;;;5034275;28;20065;-70
2022/09/06 06:18:21;;;;;;;11.23;10.02;;;19.50;99.90;;;;;;5026139;28;20025;-68
2022/09/06 06:20:46;;;;;;;13.38;9.57;;;19.50;99.90;;;;;;5031544;28;20033;-68
2022/09/06 06:23:14;;;;;;;15.07;10.25;;;19.50;99.90;;;;;;5027147;28;20096;-68
2022/09/06 06:25:39;;;;;;;11.00;9.38;;;19.50;99.90;;;;;;5028292;28;20030;-68
2022/09/06 06:28:05;;;;;;;11.52;8.95;;;19.50;99.90;;;;;;5025039;28;20512;-68
2022/09/06 06:30:31;;;;;;;12.00;9.90;;;19.60;99.90;;;;;;5025695;28;20026;-68
2022/09/06 06:32:57;;;;;;;13.30;10.45;;;19.50;99.90;;;;;;5031126;28;20021;-68
2022/09/06 06:35:24;;;;;;;12.60;9.93;;;19.50;99.90;;;;;;5029130;28;20172;-68
2022/09/06 06:37:49;;;;;;;14.30;9.77;;;19.50;99.90;;;;;;5023881;28;20434;-68
2022/09/06 06:40:15;;;;;;;10.88;8.93;;;19.50;99.90;;;;;;5022425;28;20108;-68
2022/09/06 06:42:41;;;;;;;12.65;9.63;;;19.50;99.90;;;;;;5023309;28;20022;-68
2022/09/06 06:45:07;;;;;;;11.90;9.15;;;19.60;99.90;;;;;;5024947;28;20080;-68
2022/09/06 06:47:32;;;;;;;10.75;9.68;;;19.50;99.90;;;;;;5022251;28;20344;-67
2022/09/06 06:49:58;;;;;;;11.60;9.35;;;19.60;99.90;;;;;;5014185;28;20037;-67
2022/09/06 06:52:24;;;;;;;12.80;8.73;;;19.70;99.90;;;;;;5031793;28;20508;-68
2022/09/06 06:54:50;;;;;;;14.02;10.00;;;19.80;99.90;;;;;;5031398;28;20037;-67
2022/09/06 06:57:15;;;;;;;11.68;9.57;;;19.80;99.90;;;;;;5033666;28;20068;-67
2022/09/06 06:59:41;;;;;;;13.98;9.38;;;19.90;99.90;;;;;;5032852;28;20478;-68
2022/09/06 07:02:07;;;;;;;10.52;9.40;;;20.00;99.90;;;;;;5031467;28;20029;-67
2022/09/06 07:04:32;;;;;;;11.05;9.05;;;20.00;99.90;;;;;;5034504;28;20421;-68
2022/09/06 07:06:58;;;;;;;10.07;8.68;;;20.00;99.90;;;;;;5032931;28;20485;-67
2022/09/06 07:09:24;;;;;;;10.27;7.95;;;20.10;99.90;;;;;;5033701;28;20268;-68
2022/09/06 07:11:50;;;;;;;12.77;8.93;;;20.10;99.90;;;;;;5031807;28;20047;-68
2022/09/06 07:14:16;;;;;;;10.70;7.32;;;20.00;99.90;;;;;;5030159;28;20037;-69
2022/09/06 07:16:42;;;;;;;11.55;7.15;;;20.10;99.90;;;;;;5031700;28;20472;-66
2022/09/06 07:19:08;;;;;;;8.63;6.65;;;20.10;99.90;;;;;;5032803;28;20528;-67
2022/09/06 07:21:34;;;;;;;9.38;7.25;;;20.20;99.90;;;;;;5033965;28;20037;-67
2022/09/06 07:24:00;;;;;;;9.23;6.68;;;20.20;99.90;;;;;;5033286;28;20480;-67
2022/09/06 07:26:28;;;;;;;8.55;6.82;;;20.20;99.90;;;;;;5032676;28;20490;-69
2022/09/06 07:28:55;;;;;;;11.55;6.80;;;20.30;99.90;;;;;;5033345;28;20005;-67
2022/09/06 07:31:21;;;;;;;10.52;7.03;;;20.40;99.90;;;;;;5032112;28;20026;-68
2022/09/06 07:33:47;;;;;;;14.15;7.00;;;20.40;99.90;;;;;;5033448;28;20031;-67
2022/09/06 07:36:13;;;;;;;7.53;6.03;;;20.40;99.90;;;;;;5033388;28;20022;-67
2022/09/06 07:38:39;;;;;;;10.68;6.10;;;20.50;99.90;;;;;;5033447;28;20431;-67
2022/09/06 07:41:06;;;;;;;9.07;5.43;;;20.50;99.90;;;;;;5029403;28;20112;-67
2022/09/06 07:43:33;;;;;;;9.50;5.68;;;20.70;99.90;;;;;;5033069;28;20029;-67
2022/09/06 07:46:05;;;;;;;7.90;4.78;;;20.70;99.90;;;;;;5031586;28;20079;-67
2022/09/06 07:48:32;;;;;;;5.28;3.58;;;20.80;99.90;;;;;;5033542;28;20025;-67
2022/09/06 07:51:07;;;;;;;5.00;3.30;;;20.90;99.90;;;;;;5033100;28;20013;-69
2022/09/06 07:53:34;;;;;;;3.25;2.58;;;21.00;99.90;;;;;;5026414;28;20470;-68
2022/09/06 07:56:00;;;;;;;5.32;2.88;;;21.10;99.90;;;;;;5028178;28;20486;-68
2022/09/06 07:58:28;;;;;;;6.30;3.03;;;21.20;99.90;;;;;;5030903;28;20466;-71
2022/09/06 08:00:53;;;;;;;4.05;2.30;;;21.20;99.90;;;;;;5031403;28;20021;-68
2022/09/06 08:03:19;;;;;;;2.70;2.35;;;21.30;99.90;;;;;;5031739;28;20029;-68
2022/09/06 08:05:49;;;;;;;2.53;2.33;;;21.40;99.90;;;;;;5032143;28;20482;-73
2022/09/06 08:08:14;;;;;;;3.40;2.35;;;21.60;99.90;;;;;;5019512;28;20029;-67
2022/09/06 08:10:40;;;;;;;3.03;2.50;;;21.70;99.90;;;;;;5022239;28;20021;-69
2022/09/06 08:13:06;;;;;;;4.28;2.88;;;21.70;99.90;;;;;;5018287;28;20030;-68
2022/09/06 08:15:32;;;;;;;3.97;2.83;;;21.70;99.90;;;;;;5028226;28;20378;-68
2022/09/06 08:17:57;;;;;;;7.20;2.15;;;21.90;99.90;;;;;;5015760;28;20540;-68
2022/09/06 08:20:23;;;;;;;4.82;2.42;;;21.90;99.90;;;;;;5012417;28;20029;-68
2022/09/06 08:22:48;;;;;;;3.15;2.30;;;22.00;99.90;;;;;;5018790;28;20029;-69
2022/09/06 08:25:14;;;;;;;2.30;2.00;;;22.10;99.90;;;;;;5032921;28;20029;-69
2022/09/06 08:27:39;;;;;;;5.53;2.47;;;22.10;99.90;;;;;;5031250;28;20128;-69
2022/09/06 08:30:06;;;;;;;2.92;2.40;;;22.30;99.90;;;;;;5032083;28;20057;-69
2022/09/06 08:32:35;;;;;;;2.88;2.13;;;22.40;99.90;;;;;;5032884;28;20025;-70
2022/09/06 08:35:00;;;;;;;2.17;1.98;;;22.50;99.90;;;;;;5030476;28;20017;-69
2022/09/06 08:37:26;;;;;;;4.13;2.25;;;22.60;99.90;;;;;;5030915;28;20033;-70
2022/09/06 08:39:52;;;;;;;3.13;1.83;;;22.80;99.90;;;;;;5029976;28;20013;-70
2022/09/06 08:42:17;;;;;;;4.05;1.98;;;22.80;99.90;;;;;;5012344;28;20030;-70
2022/09/06 08:44:50;;;;;;;4.65;1.70;;;22.80;99.90;;;;;;5020005;28;20474;-69
2022/09/06 08:47:18;;;;;;;3.70;2.10;;;22.90;99.90;;;;;;5032126;28;20040;-70
2022/09/06 08:49:46;;;;;;;2.45;1.95;;;23.10;99.90;;;;;;5032605;28;20025;-69
2022/09/06 08:52:24;;;;;;;4.40;2.40;;;23.20;99.90;;;;;;5032185;28;20021;-69
2022/09/06 08:55:11;;;;;;;3.72;2.10;;;23.20;99.90;;;;;;5028159;28;20603;-70
2022/09/06 08:57:49;;;;;;;5.70;2.20;;;23.30;99.90;;;;;;5032579;28;20437;-69
2022/09/06 09:00:16;;;;;;;2.50;1.90;;;23.40;99.90;;;;;;5030940;28;20060;-70
2022/09/06 09:02:47;;;;;;;2.00;1.80;;;23.40;99.90;;;;;;5017420;28;20029;-70
2022/09/06 09:05:34;;;;;;;2.63;2.00;;;23.50;99.90;;;;;;5019352;28;20033;-69
2022/09/06 09:08:20;;;;;;;3.75;1.88;;;23.70;99.90;;;;;;5019243;28;20047;-70
2022/09/06 09:11:01;;;;;;;3.13;2.20;;;23.70;99.90;;;;;;5040889;28;20072;-70
2022/09/06 09:13:45;;;;;;;3.75;2.13;;;23.90;99.90;;;;;;5045113;28;20035;-69
2022/09/06 09:16:12;;;;;;;7.53;1.92;;;24.00;99.90;;;;;;5018867;28;20389;-69
2022/09/06 09:18:41;;;;;;;4.18;2.08;;;24.10;99.90;;;;;;5030814;28;20378;-69
2022/09/06 09:21:08;;;;;;;2.70;2.08;;;24.10;99.90;;;;;;5036658;28;20067;-69
2022/09/06 09:23:34;;;;;;;2.30;2.10;;;24.20;99.90;;;;;;5030821;28;20034;-70
2022/09/06 09:26:08;;;;;;;8.98;2.17;;;24.40;99.90;;;;;;5035447;28;20058;-69
2022/09/06 09:28:34;;;;;;;4.18;1.88;;;24.50;99.90;;;;;;5042735;28;20036;-70
2022/09/06 09:31:00;;;;;;;3.40;1.98;;;24.60;99.90;;;;;;5026649;28;20029;-70
2022/09/06 09:33:38;;;;;;;4.10;2.17;;;24.80;99.90;;;;;;5032508;28;20100;-70
2022/09/06 09:36:11;;;;;;;4.55;2.40;;;25.00;99.90;;;;;;5025209;28;20040;-70
2022/09/06 09:38:51;;;;;;;6.47;2.42;;;25.10;99.90;;;;;;5025287;28;20486;-70
2022/09/06 09:41:31;;;;;;;3.10;2.13;;;25.30;99.90;;;;;;5018863;28;20359;-70
2022/09/06 09:44:00;;;;;;;30.80;3.60;;;25.30;99.90;;;;;;5026279;28;20354;-70
2022/09/06 09:46:34;;;;;;;5.28;1.90;;;25.50;99.90;;;;;;5028529;28;20026;-70
2022/09/06 09:49:13;;;;;;;5.82;2.10;;;25.70;99.90;;;;;;5028268;28;20091;-70
2022/09/06 09:52:03;;;;;;;5.20;1.98;;;25.90;99.90;;;;;;5022239;28;20030;-70
2022/09/06 09:54:30;;;;;;;5.22;3.00;;;26.10;99.90;;;;;;5025590;28;20037;-70
2022/09/06 09:56:56;;;;;;;4.40;2.88;;;26.10;99.90;;;;;;5027027;28;20025;-70
2022/09/06 09:59:24;;;;;;;7.22;2.15;;;26.10;99.90;;;;;;5025723;28;20351;-69
2022/09/06 10:01:54;;;;;;;4.22;2.60;;;26.30;99.90;;;;;;5028966;28;20044;-67
2022/09/06 10:04:35;;;;;;;6.28;2.55;;;26.50;99.90;;;;;;5033887;28;20088;-69
2022/09/06 10:07:16;;;;;;;6.72;2.55;;;26.60;99.90;;;;;;5035780;28;20018;-69
2022/09/06 10:09:48;;;;;;;5.68;2.13;;;26.70;99.90;;;;;;5025800;28;21330;-69
2022/09/06 10:12:27;;;;;;;5.43;2.67;;;26.90;99.90;;;;;;5020470;28;20508;-69
2022/09/06 10:14:54;;;;;;;4.30;2.75;;;26.60;99.90;;;;;;5030682;28;20075;-68
2022/09/06 10:17:30;;;;;;;6.13;2.28;;;26.50;99.90;;;;;;5026627;28;20036;-73
2022/09/06 10:20:00;;;;;;;7.85;2.20;;;26.70;99.90;;;;;;5026020;28;20016;-71
2022/09/06 10:22:34;;;;;;;4.57;2.88;;;27.10;99.90;;;;;;5025051;28;20036;-70
2022/09/06 10:25:05;;;;;;;3.88;2.20;;;27.20;99.90;;;;;;5026253;28;20509;-70
2022/09/06 10:27:32;;;;;;;5.45;2.10;;;27.40;99.90;;;;;;5028029;28;20029;-71
2022/09/06 10:30:08;;;;;;;3.40;2.40;;;27.60;99.90;;;;;;5024222;28;20389;-71
2022/09/06 10:32:48;;;;;;;4.78;2.42;;;27.60;99.90;;;;;;5031030;28;20100;-72
2022/09/06 10:35:30;;;;;;;3.60;1.98;;;27.70;99.90;;;;;;5025288;28;20105;-71
2022/09/06 10:38:23;;;;;;;4.15;2.75;;;27.90;99.90;;;;;;5031272;28;20116;-71
2022/09/06 10:41:07;;;;;;;;;;;27.90;99.90;;;;;;5029385;28;20032;-71
2022/09/06 10:43:56;;;;;;;2.63;2.35;;;28.00;99.90;;;;;;5032714;28;19909;-70
2022/09/06 10:46:25;;;;;;;4.00;2.55;;;27.80;99.90;;;;;;5025519;28;20046;-69
2022/09/06 10:48:55;;;;;;;3.13;2.58;;;27.70;99.90;;;;;;5024550;28;20073;-71
2022/09/06 10:51:40;;;;;;;4.03;2.60;;;27.60;99.90;;;;;;5025594;28;20022;-71
2022/09/06 10:54:11;;;;;;;3.83;2.10;;;27.50;99.90;;;;;;5026833;28;20112;-72
2022/09/06 10:56:52;;;;;;;4.32;2.15;;;27.70;99.90;;;;;;5035593;28;20458;-70
2022/09/06 10:59:51;;;;;;;5.75;2.97;;;27.80;99.90;;;;;;5027425;28;20029;-71
2022/09/06 11:03:13;;;;;;;3.65;2.20;;;27.90;99.90;;;;;;5030262;28;20453;-71
2022/09/06 11:05:50;;;;;;;3.15;2.15;;;28.10;99.90;;;;;;5010495;28;20044;-72
2022/09/06 11:08:32;;;;;;;2.33;1.58;;;28.30;99.90;;;;;;5033166;28;20033;-72
2022/09/06 11:11:03;;;;;;;2.17;1.70;;;28.40;99.90;;;;;;5017229;28;20025;-72
2022/09/06 11:13:29;;;;;;;1.75;1.65;;;28.60;99.90;;;;;;5021276;28;20033;-71
2022/09/06 11:16:21;;;;;;;4.93;2.20;;;28.70;99.90;;;;;;5026196;28;20043;-71
2022/09/06 11:19:20;;;;;;;4.25;2.20;;;28.90;99.90;;;;;;5030803;28;20072;-72
2022/09/06 11:22:14;;;;;;;2.63;1.95;;;29.00;99.90;;;;;;5043036;28;20355;-72
2022/09/06 11:24:42;;;;;;;2.22;1.65;;;29.00;99.50;;;;;;5029842;28;20438;-72
2022/09/06 11:27:13;;;;;;;2.83;1.77;;;29.20;98.90;;;;;;5033188;28;20528;-72
2022/09/06 11:29:44;;;;;;;2.05;1.83;;;29.20;99.40;;;;;;5048623;28;20086;-71
2022/09/06 11:32:37;;;;;;;3.67;1.92;;;29.30;99.90;;;;;;5034340;28;20025;-72
2022/09/06 11:35:08;;;;;;;2.88;1.88;;;29.40;96.60;;;;;;5043919;28;20045;-73
2022/09/06 11:37:39;;;;;;;1.55;1.30;;;29.40;96.90;;;;;;5019053;28;20037;-71
2022/09/06 11:40:23;;;;;;;4.38;1.80;;;29.50;96.80;;;;;;5023607;28;20076;-71
2022/09/06 11:42:48;;;;;;;4.72;2.13;;;29.40;97.20;;;;;;5031554;28;20094;-72
2022/09/06 11:45:38;;;;;;;4.13;1.80;;;29.50;97.30;;;;;;5037344;28;20501;-72
2022/09/06 11:48:22;;;;;;;6.68;1.88;;;29.50;96.20;;;;;;5032190;28;20078;-72
2022/09/06 11:50:57;;;;;;;2.70;1.88;;;29.50;97.00;;;;;;5034037;28;20456;-74
2022/09/06 11:53:28;;;;;;;2.58;2.25;;;29.60;97.30;;;;;;5035133;28;20032;-72
2022/09/06 11:55:59;;;;;;;3.50;1.70;;;29.60;97.70;;;;;;5038371;28;20115;-72
2022/09/06 11:58:40;;;;;;;1.50;1.30;;;29.60;97.20;;;;;;5039492;28;20032;-72
2022/09/06 12:01:12;;;;;;;4.38;1.55;;;29.70;96.50;;;;;;5036229;28;20034;-72
2022/09/06 12:03:40;;;;;;;2.92;1.73;;;29.60;96.50;;;;;;5035811;28;20029;-72
2022/09/06 12:06:20;;;;;;;2.58;1.27;;;29.70;95.70;;;;;;5040341;28;20050;-72
2022/09/06 12:08:53;;;;;;;4.65;2.03;;;29.80;95.40;;;;;;5042333;28;20533;-72
2022/09/06 12:11:36;;;;;;;5.32;1.90;;;29.80;95.60;;;;;;5046113;28;20032;-72
2022/09/06 12:14:04;;;;;;;3.05;1.50;;;29.80;95.50;;;;;;5020193;28;20029;-72
2022/09/06 12:16:59;;;;;;;4.55;2.30;;;29.90;96.70;;;;;;5039538;28;20072;-72
2022/09/06 12:19:54;;;;;;;4.95;1.92;;;29.80;94.90;;;;;;5047260;28;20091;-72
2022/09/06 12:22:25;;;;;;;3.75;1.83;;;29.90;95.00;;;;;;5023496;28;20028;-72
2022/09/06 12:24:53;;;;;;;1.63;1.52;;;30.00;95.00;;;;;;5044264;28;20493;-72
2022/09/06 12:27:24;;;;;;;4.60;2.00;;;30.10;95.60;;;;;;5035706;28;20490;-72
2022/09/06 12:30:03;;;;;;;3.63;1.98;;;30.00;94.20;;;;;;5048810;28;20031;-72
2022/09/06 12:32:35;;;;;;;2.45;2.13;;;30.00;94.10;;;;;;5034714;28;20025;-71
2022/09/06 12:35:04;;;;;;;2.80;1.90;;;29.90;93.80;;;;;;5043799;28;20044;-72
2022/09/06 12:37:33;;;;;;;2.90;1.83;;;30.00;94.30;;;;;;5035452;28;20032;-72
2022/09/06 12:39:59;;;;;;;4.18;1.77;;;30.00;95.60;;;;;;5034105;28;20103;-72
2022/09/06 12:42:25;;;;;;;3.10;1.90;;;30.00;94.60;;;;;;5043889;28;20104;-72
2022/09/06 12:44:52;;;;;;;2.83;1.73;;;30.00;94.30;;;;;;5043180;28;20028;-72
2022/09/06 12:47:33;;;;;;;3.28;2.33;;;30.10;93.70;;;;;;5037290;28;20021;-72
2022/09/06 12:50:16;;;;;;;2.58;1.83;;;30.30;95.20;;;;;;5019438;28;20029;-72
2022/09/06 12:53:03;;;;;;;2.25;2.05;;;30.30;94.20;;;;;;5035433;28;20029;-72
2022/09/06 12:55:34;;;;;;;3.67;2.38;;;30.20;93.30;;;;;;5042280;28;20044;-72
2022/09/06 12:58:09;;;;;;;4.43;2.30;;;30.20;93.50;;;;;;5025411;28;20024;-72
2022/09/06 13:00:50;;;;;;;3.55;2.03;;;30.30;93.50;;;;;;5042018;28;20143;-72
2022/09/06 13:03:35;;;;;;;5.60;2.20;;;30.40;94.40;;;;;;5035098;28;20057;-72
2022/09/06 13:06:04;;;;;;;2.97;1.92;;;30.40;92.70;;;;;;5018043;28;20014;-72